Time;durP1;ratioP1;P1;durP2;ratioP2;P2;SDS_P1;SDS_P2;PMS_P1;PMS_P2;Temp;Humidity;BMP_temperature;BMP_pressure;BME280_temperature;BME280_humidity;BME280_pressure;Samples;Min_cycle;Max_cycle;Signal;HPM_P1;HPM_P2
2022/08/24 00:00:57;;;;;;;5.05;3.00;;;;;;;;;;4993058;28;20462;-60
2022/08/24 00:03:23;;;;;;;5.72;3.35;;;;;;;;;;4991156;28;20479;-60
2022/08/24 00:05:49;;;;;;;6.93;3.47;;;;;;;;;;4991481;28;20038;-61
2022/08/24 00:08:14;;;;;;;6.43;3.30;;;;;;;;;;4991450;28;20044;-61
2022/08/24 00:10:40;;;;;;;7.00;3.28;;;;;;;;;;4990772;28;20031;-61
2022/08/24 00:13:06;;;;;;;5.50;3.15;;;;;;;;;;4991535;28;20064;-60
2022/08/24 00:15:32;;;;;;;6.60;3.10;;;;;;;;;;4990287;28;20125;-61
2022/08/24 00:17:58;;;;;;;5.28;3.22;;;;;;;;;;4987601;28;20042;-60
2022/08/24 00:20:25;;;;;;;4.38;2.90;;;;;;;;;;4975429;28;20467;-60
2022/08/24 00:22:51;;;;;;;4.75;3.03;;;;;;;;;;4978560;28;20038;-60
2022/08/24 00:25:18;;;;;;;7.00;2.72;;;;;;;;;;4991435;28;20030;-61
2022/08/24 00:27:45;;;;;;;6.32;2.97;;;;;;;;;;4991518;28;20035;-61
2022/08/24 00:30:14;;;;;;;5.70;2.80;;;;;;;;;;4992584;28;20070;-61
2022/08/24 00:32:40;;;;;;;4.90;2.90;;;;;;;;;;4989929;28;20467;-61
2022/08/24 00:35:07;;;;;;;5.20;2.88;;;;;;;;;;4988547;28;20439;-61
2022/08/24 00:37:33;;;;;;;5.82;2.70;;;;;;;;;;4991425;28;20486;-61
2022/08/24 00:39:58;;;;;;;4.18;3.05;;;;;;;;;;4991252;28;20387;-61
2022/08/24 00:42:24;;;;;;;5.00;3.10;;;;;;;;;;4990760;28;20053;-64
2022/08/24 00:44:50;;;;;;;4.65;2.80;;;;;;;;;;4991281;28;20041;-61
2022/08/24 00:47:32;;;;;;;4.57;2.92;;;;;;;;;;4990695;28;20101;-61
2022/08/24 00:50:05;;;;;;;8.48;3.10;;;;;;;;;;4989888;28;20042;-61
2022/08/24 00:52:38;;;;;;;7.60;3.40;;;;;;;;;;4992269;28;20132;-61
2022/08/24 00:55:18;;;;;;;7.70;3.33;;;;;;;;;;4989533;28;20038;-61
2022/08/24 00:57:48;;;;;;;6.18;3.20;;;;;;;;;;4991193;28;20050;-61
2022/08/24 01:00:24;;;;;;;5.05;3.13;;;;;;;;;;4990176;28;20038;-61
2022/08/24 01:02:57;;;;;;;5.50;3.25;;;;;;;;;;4990304;28;20089;-61
2022/08/24 01:05:23;;;;;;;6.13;3.10;;;;;;;;;;4987602;28;20471;-65
2022/08/24 01:07:49;;;;;;;5.85;3.20;;;;;;;;;;4991218;28;20033;-61
2022/08/24 01:10:18;;;;;;;6.22;3.40;;;;;;;;;;4990615;28;20041;-61
2022/08/24 01:12:47;;;;;;;5.13;3.33;;;;;;;;;;4990982;28;20077;-61
2022/08/24 01:15:15;;;;;;;12.07;3.83;;;;;;;;;;4989012;28;20091;-61
2022/08/24 01:20:25;;;;;;;8.82;3.67;;;;;;;;;;4991888;28;20131;-61
2022/08/24 01:22:53;;;;;;;7.25;3.58;;;;;;;;;;4989333;28;20030;-60
2022/08/24 01:25:21;;;;;;;6.72;3.70;;;;;;;;;;4990887;28;20078;-61
2022/08/24 01:27:48;;;;;;;5.57;3.28;;;;;;;;;;4989986;28;20038;-61
2022/08/24 01:30:15;;;;;;;7.88;3.90;;;;;;;;;;4990244;28;20057;-61
2022/08/24 01:32:52;;;;;;;6.13;3.53;;;;;;;;;;4989512;28;20035;-61
2022/08/24 01:35:17;;;;;;;5.35;3.47;;;;;;;;;;4988798;28;20046;-61
2022/08/24 01:37:43;;;;;;;6.00;3.67;;;;;;;;;;4990865;28;20033;-61
2022/08/24 01:40:08;;;;;;;8.68;3.88;;;;;;;;;;4984250;28;20418;-61
2022/08/24 01:42:34;;;;;;;7.28;4.10;;;;;;;;;;4983551;28;20042;-64
2022/08/24 01:45:01;;;;;;;7.22;4.05;;;;;;;;;;4975893;28;20121;-60
2022/08/24 01:47:27;;;;;;;7.82;4.50;;;;;;;;;;4982022;28;20114;-61
2022/08/24 01:49:53;;;;;;;7.97;4.93;;;;;;;;;;4990563;28;20038;-61
2022/08/24 01:52:21;;;;;;;9.32;6.13;;;;;;;;;;4989848;28;20038;-61
2022/08/24 01:54:48;;;;;;;13.68;5.68;;;;;;;;;;4988358;28;20038;-61
2022/08/24 01:57:13;;;;;;;12.95;5.88;;;;;;;;;;4991153;28;20050;-60
2022/08/24 01:59:39;;;;;;;9.48;5.82;;;;;;;;;;4988972;28;20399;-60
2022/08/24 02:02:09;;;;;;;10.32;5.25;;;;;;;;;;4989731;28;20045;-62
2022/08/24 02:04:35;;;;;;;15.23;5.28;;;;;;;;;;4987452;28;20034;-65
2022/08/24 02:07:01;;;;;;;10.35;5.90;;;;;;;;;;4990965;28;20034;-60
2022/08/24 02:09:26;;;;;;;14.85;5.88;;;;;;;;;;4992108;28;20033;-60
2022/08/24 02:11:53;;;;;;;10.82;5.88;;;;;;;;;;4990332;28;20038;-60
2022/08/24 02:14:19;;;;;;;11.07;6.03;;;;;;;;;;4990424;28;20071;-60
2022/08/24 02:16:45;;;;;;;10.63;5.80;;;;;;;;;;4989172;28;20527;-61
2022/08/24 02:19:11;;;;;;;8.68;5.75;;;;;;;;;;4987464;28;20042;-61
2022/08/24 02:21:37;;;;;;;10.45;6.05;;;;;;;;;;4987750;28;20026;-64
2022/08/24 02:24:03;;;;;;;11.18;6.40;;;;;;;;;;4989715;28;20038;-61
2022/08/24 02:26:28;;;;;;;13.70;6.05;;;;;;;;;;4988973;28;20130;-60
2022/08/24 02:28:54;;;;;;;12.05;5.90;;;;;;;;;;4990330;28;20078;-62
2022/08/24 02:31:19;;;;;;;11.70;6.13;;;;;;;;;;4989230;28;20041;-61
2022/08/24 02:33:45;;;;;;;8.25;5.40;;;;;;;;;;4990519;28;20176;-61
2022/08/24 02:36:11;;;;;;;10.35;5.57;;;;;;;;;;4992619;28;20065;-61
2022/08/24 02:38:37;;;;;;;9.55;5.40;;;;;;;;;;4994538;28;20030;-64
2022/08/24 02:41:03;;;;;;;7.13;4.82;;;;;;;;;;4993348;28;20038;-61
2022/08/24 02:43:29;;;;;;;7.93;5.32;;;;;;;;;;4992062;28;20053;-61
2022/08/24 02:45:54;;;;;;;7.75;5.30;;;;;;;;;;4993335;28;20034;-60
2022/08/24 02:48:20;;;;;;;7.85;5.13;;;;;;;;;;4991956;28;20468;-61
2022/08/24 02:50:48;;;;;;;8.40;5.55;;;;;;;;;;4993756;28;20035;-60
2022/08/24 02:53:15;;;;;;;8.50;5.68;;;;;;;;;;4991509;28;20085;-61
2022/08/24 02:55:42;;;;;;;10.48;5.70;;;;;;;;;;4993366;28;20120;-62
2022/08/24 02:58:10;;;;;;;8.57;5.75;;;;;;;;;;4992669;28;20503;-62
2022/08/24 03:00:37;;;;;;;7.85;5.72;;;;;;;;;;4994305;28;20049;-61
2022/08/24 03:03:03;;;;;;;10.00;5.88;;;;;;;;;;4990275;28;20130;-62
2022/08/24 03:05:28;;;;;;;9.60;5.68;;;;;;;;;;4991139;28;20058;-61
2022/08/24 03:07:55;;;;;;;9.38;5.60;;;;;;;;;;4990105;28;20039;-61
2022/08/24 03:10:21;;;;;;;9.45;5.40;;;;;;;;;;4993241;28;20475;-61
2022/08/24 03:12:47;;;;;;;9.85;5.75;;;;;;;;;;4990365;28;20157;-60
2022/08/24 03:15:13;;;;;;;9.15;6.38;;;;;;;;;;4993345;28;20034;-60
2022/08/24 03:17:39;;;;;;;10.00;5.93;;;;;;;;;;4990535;28;20537;-64
2022/08/24 03:20:07;;;;;;;9.18;5.88;;;;;;;;;;4994077;28;20039;-62
2022/08/24 03:22:32;;;;;;;9.82;5.55;;;;;;;;;;4991571;28;20062;-66
2022/08/24 03:24:58;;;;;;;10.27;6.05;;;;;;;;;;4991203;28;20161;-61
2022/08/24 03:27:24;;;;;;;8.95;5.63;;;;;;;;;;4992079;28;20066;-61
2022/08/24 03:29:49;;;;;;;9.38;5.88;;;;;;;;;;4991537;28;20034;-61
2022/08/24 03:32:15;;;;;;;8.77;5.85;;;;;;;;;;4992802;28;20034;-61
2022/08/24 03:34:40;;;;;;;9.63;5.93;;;;;;;;;;4983528;28;20118;-66
2022/08/24 03:37:06;;;;;;;10.30;5.88;;;;;;;;;;4986192;28;20038;-61
2022/08/24 03:39:31;;;;;;;10.43;5.82;;;;;;;;;;4992668;28;20026;-61
2022/08/24 03:41:57;;;;;;;8.27;5.75;;;;;;;;;;4991979;28;20463;-63
2022/08/24 03:44:24;;;;;;;8.52;5.45;;;;;;;;;;4991554;28;20096;-61
2022/08/24 03:46:51;;;;;;;7.55;5.70;;;;;;;;;;4992406;28;20454;-61
2022/08/24 03:49:17;;;;;;;9.23;5.63;;;;;;;;;;4990339;28;20459;-63
2022/08/24 03:51:43;;;;;;;10.15;5.95;;;;;;;;;;4993527;28;20038;-65
2022/08/24 03:54:10;;;;;;;7.70;5.72;;;;;;;;;;4991608;28;20035;-61
2022/08/24 03:56:36;;;;;;;10.15;6.03;;;;;;;;;;4991159;28;20040;-61
2022/08/24 03:59:01;;;;;;;8.43;6.00;;;;;;;;;;4989932;28;20128;-61
2022/08/24 04:01:27;;;;;;;9.98;6.00;;;;;;;;;;4993354;28;20390;-61
2022/08/24 04:03:54;;;;;;;11.85;5.72;;;;;;;;;;4990843;28;20490;-61
2022/08/24 04:06:20;;;;;;;9.77;5.60;;;;;;;;;;4987560;28;20035;-62
2022/08/24 04:08:46;;;;;;;9.65;6.05;;;;;;;;;;4989949;28;20325;-61
2022/08/24 04:11:15;;;;;;;9.55;5.90;;;;;;;;;;4993126;28;20034;-60
2022/08/24 04:13:41;;;;;;;8.73;5.85;;;;;;;;;;4993128;28;20041;-66
2022/08/24 04:16:08;;;;;;;10.70;5.93;;;;;;;;;;4988044;28;20026;-60
2022/08/24 04:18:34;;;;;;;7.10;5.72;;;;;;;;;;4992207;28;20035;-62
2022/08/24 04:21:00;;;;;;;11.73;6.18;;;;;;;;;;4992278;28;20050;-61
2022/08/24 04:23:26;;;;;;;9.23;5.88;;;;;;;;;;4992800;28;20372;-61
2022/08/24 04:25:51;;;;;;;9.80;6.28;;;;;;;;;;4991683;28;20037;-62
2022/08/24 04:28:18;;;;;;;11.55;6.22;;;;;;;;;;4992830;28;20030;-61
2022/08/24 04:30:50;;;;;;;11.80;6.38;;;;;;;;;;4993342;28;20053;-64
2022/08/24 04:33:17;;;;;;;10.63;6.60;;;;;;;;;;4992893;28;20085;-61
2022/08/24 04:35:46;;;;;;;11.02;6.70;;;;;;;;;;4993436;28;20479;-65
2022/08/24 04:38:12;;;;;;;11.70;6.75;;;;;;;;;;4991889;28;20549;-61
2022/08/24 04:40:39;;;;;;;8.85;6.45;;;;;;;;;;4993893;28;20031;-61
2022/08/24 04:43:05;;;;;;;9.68;6.15;;;;;;;;;;4990322;28;20648;-60
2022/08/24 04:45:32;;;;;;;12.15;7.05;;;;;;;;;;4992832;28;20036;-60
2022/08/24 04:47:59;;;;;;;11.70;6.57;;;;;;;;;;4991408;28;20073;-62
2022/08/24 04:50:24;;;;;;;9.98;6.90;;;;;;;;;;4993435;28;20034;-62
2022/08/24 04:52:50;;;;;;;11.93;6.22;;;;;;;;;;4990261;28;20038;-61
2022/08/24 04:55:16;;;;;;;11.05;6.43;;;;;;;;;;4992833;28;20118;-61
2022/08/24 04:57:41;;;;;;;11.40;7.15;;;;;;;;;;4988909;28;20046;-61
2022/08/24 05:00:09;;;;;;;10.57;6.38;;;;;;;;;;4990604;28;20434;-61
2022/08/24 05:02:36;;;;;;;9.13;6.25;;;;;;;;;;4992749;28;20041;-61
2022/08/24 05:05:01;;;;;;;10.88;6.75;;;;;;;;;;4990861;28;20064;-63
2022/08/24 05:07:27;;;;;;;15.43;7.28;;;;;;;;;;4991087;28;20060;-61
2022/08/24 05:09:53;;;;;;;13.85;6.97;;;;;;;;;;4991236;28;20030;-61
2022/08/24 05:12:19;;;;;;;12.05;7.30;;;;;;;;;;4992695;28;20113;-61
2022/08/24 05:14:45;;;;;;;14.18;7.60;;;;;;;;;;4990322;28;20439;-64
2022/08/24 05:17:10;;;;;;;13.05;7.10;;;;;;;;;;4989066;28;20045;-60
2022/08/24 05:19:36;;;;;;;10.82;7.25;;;;;;;;;;4991064;28;20026;-62
2022/08/24 05:22:01;;;;;;;11.77;7.00;;;;;;;;;;4992155;28;20455;-62
2022/08/24 05:24:27;;;;;;;13.32;7.30;;;;;;;;;;4990545;28;20356;-63
2022/08/24 05:26:52;;;;;;;9.68;6.68;;;;;;;;;;4989948;28;20037;-62
2022/08/24 05:29:18;;;;;;;11.07;6.57;;;;;;;;;;4991457;28;20121;-62
2022/08/24 05:31:45;;;;;;;12.00;6.78;;;;;;;;;;4992195;28;20117;-62
2022/08/24 05:34:11;;;;;;;11.32;7.10;;;;;;;;;;4989170;28;20034;-62
2022/08/24 05:36:38;;;;;;;9.85;6.88;;;;;;;;;;4990881;28;20109;-60
2022/08/24 05:39:06;;;;;;;14.88;7.10;;;;;;;;;;4991143;28;20368;-62
2022/08/24 05:41:33;;;;;;;13.27;7.65;;;;;;;;;;4991705;28;20109;-62
2022/08/24 05:43:59;;;;;;;15.43;8.32;;;;;;;;;;4991229;28;20026;-63
2022/08/24 05:46:24;;;;;;;12.43;8.00;;;;;;;;;;4987958;28;20057;-62
2022/08/24 05:48:50;;;;;;;18.75;8.00;;;;;;;;;;4990754;28;20166;-65
2022/08/24 05:51:16;;;;;;;16.10;8.20;;;;;;;;;;4990404;28;20034;-60
2022/08/24 05:53:42;;;;;;;15.93;8.45;;;;;;;;;;4991810;28;20034;-61
2022/08/24 05:56:12;;;;;;;17.60;8.20;;;;;;;;;;4990106;28;20037;-60
2022/08/24 05:58:38;;;;;;;15.60;8.38;;;;;;;;;;4990929;28;20039;-61
2022/08/24 06:01:06;;;;;;;15.55;8.38;;;;;;;;;;4989686;28;20034;-61
2022/08/24 06:03:32;;;;;;;15.70;8.63;;;;;;;;;;4989112;28;20042;-60
2022/08/24 06:05:57;;;;;;;17.10;8.82;;;;;;;;;;4990103;28;20129;-61
2022/08/24 06:08:23;;;;;;;16.08;8.75;;;;;;;;;;4995021;28;20034;-62
2022/08/24 06:10:48;;;;;;;20.23;9.15;;;;;;;;;;4996437;28;20034;-64
2022/08/24 06:13:14;;;;;;;17.30;8.30;;;;;;;;;;4994913;28;20493;-60
2022/08/24 06:15:41;;;;;;;14.00;8.60;;;;;;;;;;4994555;28;20037;-61
2022/08/24 06:18:07;;;;;;;16.55;8.52;;;;;;;;;;4980280;28;20395;-61
2022/08/24 06:20:38;;;;;;;16.25;8.15;;;;;;;;;;4995379;28;20028;-61
2022/08/24 06:23:04;;;;;;;15.50;8.38;;;;;;;;;;4994381;28;20041;-60
2022/08/24 06:28:14;;;;;;;12.00;7.43;;;;;;;;;;4994851;28;20101;-61
2022/08/24 06:30:41;;;;;;;15.18;7.93;;;;;;;;;;4996205;28;20120;-61
2022/08/24 06:33:07;;;;;;;16.63;8.23;;;;;;;;;;4992859;28;20122;-61
2022/08/24 06:35:33;;;;;;;12.20;7.70;;;;;;;;;;4994744;28;20038;-61
2022/08/24 06:37:58;;;;;;;17.02;8.50;;;;;;;;;;4993577;28;20034;-60
2022/08/24 06:40:24;;;;;;;18.13;7.65;;;;;;;;;;4994390;28;20026;-61
2022/08/24 06:42:50;;;;;;;14.00;7.95;;;;;;;;;;4993724;28;20092;-64
2022/08/24 06:45:16;;;;;;;15.10;7.50;;;;;;;;;;4995353;28;20050;-61
2022/08/24 06:47:41;;;;;;;11.13;6.82;;;;;;;;;;4991044;28;20023;-60
2022/08/24 06:50:07;;;;;;;11.80;7.15;;;;;;;;;;4988097;28;20121;-60
2022/08/24 06:52:34;;;;;;;12.88;7.25;;;;;;;;;;4990095;28;20491;-61
2022/08/24 06:54:59;;;;;;;10.77;6.80;;;;;;;;;;4986779;28;20034;-61
2022/08/24 06:57:25;;;;;;;12.48;6.40;;;;;;;;;;4994545;28;20046;-64
2022/08/24 06:59:51;;;;;;;12.75;6.60;;;;;;;;;;4993078;28;20073;-65
2022/08/24 07:02:18;;;;;;;10.40;5.75;;;;;;;;;;4994540;28;20117;-60
2022/08/24 07:04:44;;;;;;;15.95;6.70;;;;;;;;;;4991033;28;20108;-61
2022/08/24 07:07:09;;;;;;;10.93;6.50;;;;;;;;;;4993082;28;20038;-61
2022/08/24 07:09:35;;;;;;;11.40;6.20;;;;;;;;;;4993016;28;20045;-61
2022/08/24 07:12:00;;;;;;;11.40;6.25;;;;;;;;;;4993073;28;20395;-61
2022/08/24 07:14:26;;;;;;;10.65;6.10;;;;;;;;;;4995288;28;20053;-61
2022/08/24 07:16:52;;;;;;;10.65;5.70;;;;;;;;;;4981836;28;20117;-64
2022/08/24 07:19:18;;;;;;;11.95;5.70;;;;;;;;;;4985048;28;20035;-61
2022/08/24 07:21:43;;;;;;;13.02;5.85;;;;;;;;;;4995283;28;20038;-62
2022/08/24 07:24:09;;;;;;;11.80;5.22;;;;;;;;;;4993222;28;20439;-62
2022/08/24 07:26:36;;;;;;;10.32;5.68;;;;;;;;;;4993263;28;20030;-61
2022/08/24 07:29:13;;;;;;;12.93;5.28;;;;;;;;;;4993100;28;20026;-61
2022/08/24 07:31:40;;;;;;;10.50;5.00;;;;;;;;;;4990548;28;20530;-63
2022/08/24 07:34:07;;;;;;;8.65;4.85;;;;;;;;;;4992546;28;20034;-61
2022/08/24 07:36:34;;;;;;;9.02;5.68;;;;;;;;;;4994849;28;20109;-61
2022/08/24 07:38:59;;;;;;;8.98;4.63;;;;;;;;;;4993117;28;20041;-62
2022/08/24 07:41:26;;;;;;;12.23;4.70;;;;;;;;;;4993847;28;20030;-61
2022/08/24 07:43:53;;;;;;;11.32;5.03;;;;;;;;;;4988640;28;20030;-61
2022/08/24 07:46:19;;;;;;;7.97;4.72;;;;;;;;;;4992753;28;20084;-61
2022/08/24 07:48:45;;;;;;;12.57;4.90;;;;;;;;;;4994316;28;20042;-61
2022/08/24 07:51:14;;;;;;;9.75;5.05;;;;;;;;;;4993027;28;20467;-61
2022/08/24 07:53:39;;;;;;;11.73;5.00;;;;;;;;;;4994383;28;20030;-61
2022/08/24 07:56:05;;;;;;;13.82;4.80;;;;;;;;;;4993023;28;20153;-61
2022/08/24 07:58:31;;;;;;;16.15;4.70;;;;;;;;;;4994330;28;20051;-61
2022/08/24 08:00:57;;;;;;;9.85;4.90;;;;;;;;;;4992502;28;20116;-64
2022/08/24 08:03:26;;;;;;;9.90;4.43;;;;;;;;;;4993226;28;20037;-61
2022/08/24 08:05:56;;;;;;;8.40;4.70;;;;;;;;;;4992745;28;20455;-61
2022/08/24 08:08:23;;;;;;;9.23;4.75;;;;;;;;;;4992508;28;20026;-61
2022/08/24 08:10:48;;;;;;;8.45;4.60;;;;;;;;;;4993936;28;20387;-61
2022/08/24 08:13:14;;;;;;;14.80;4.75;;;;;;;;;;4989840;28;20060;-62
2022/08/24 08:15:40;;;;;;;12.45;4.80;;;;;;;;;;4984772;28;20058;-63
2022/08/24 08:18:06;;;;;;;10.82;4.28;;;;;;;;;;4989417;28;20067;-64
2022/08/24 08:20:31;;;;;;;13.38;4.50;;;;;;;;;;4993816;28;20109;-62
2022/08/24 08:25:47;;;;;;;10.30;4.40;;;;;;;;;;4993736;28;20041;-63
2022/08/24 08:28:12;;;;;;;10.98;4.63;;;;;;;;;;4991418;28;20034;-62
2022/08/24 08:30:40;;;;;;;12.20;4.47;;;;;;;;;;4992947;28;20109;-61
2022/08/24 08:33:06;;;;;;;11.25;4.32;;;;;;;;;;4991502;28;20438;-61
2022/08/24 08:35:32;;;;;;;6.30;3.80;;;;;;;;;;4988401;28;20113;-62
2022/08/24 08:37:58;;;;;;;7.68;4.07;;;;;;;;;;4991666;28;20061;-61
2022/08/24 08:40:42;;;;;;;10.15;3.75;;;;;;;;;;4993034;28;20062;-59
2022/08/24 08:43:40;;;;;;;8.55;3.78;;;;;;;;;;4990539;28;20026;-59
2022/08/24 08:46:32;;;;;;;6.65;3.55;;;;;;;;;;4992678;28;20033;-59
2022/08/24 08:49:25;;;;;;;9.50;3.63;;;;;;;;;;4992450;28;20084;-62
2022/08/24 08:51:58;;;;;;;7.20;3.72;;;;;;;;;;4991688;28;20038;-60
2022/08/24 08:54:58;;;;;;;12.43;3.90;;;;;;;;;;4966282;28;20078;-59
2022/08/24 08:57:26;;;;;;;12.43;4.00;;;;;;;;;;4959928;28;20133;-61
2022/08/24 09:00:00;;;;;;;5.40;3.30;;;;;;;;;;4973664;28;20030;-60
2022/08/24 09:02:52;;;;;;;7.05;3.60;;;;;;;;;;4959156;28;20089;-60
2022/08/24 09:05:39;;;;;;;11.07;3.60;;;;;;;;;;4959824;28;20102;-61
2022/08/24 09:08:24;;;;;;;7.82;3.50;;;;;;;;;;4976323;28;20121;-60
2022/08/24 09:11:17;;;;;;;8.20;3.42;;;;;;;;;;4972438;28;20395;-61
2022/08/24 09:13:50;;;;;;;7.05;3.50;;;;;;;;;;4971734;28;20042;-60
2022/08/24 09:16:33;;;;;;;10.35;3.30;;;;;;;;;;4971470;28;20479;-60
2022/08/24 09:19:10;;;;;;;6.05;2.70;;;;;;;;;;4972041;28;20035;-62
2022/08/24 09:21:50;;;;;;;5.70;2.83;;;;;;;;;;4972914;28;20042;-60
2022/08/24 09:24:28;;;;;;;9.32;2.85;;;;;;;;;;4971579;28;20042;-60
2022/08/24 09:27:12;;;;;;;7.65;2.72;;;;;;;;;;4970319;28;20038;-61
2022/08/24 09:30:11;;;;;;;5.85;2.60;;;;;;;;;;4972538;28;20035;-60
2022/08/24 09:32:58;;;;;;;6.75;2.90;;;;;;;;;;4971109;28;20488;-61
2022/08/24 09:35:48;;;;;;;6.47;2.50;;;;;;;;;;4970482;28;20053;-61
2022/08/24 09:38:23;;;;;;;7.20;2.53;;;;;;;;;;4970294;28;20038;-61
2022/08/24 09:41:10;;;;;;;5.88;2.30;;;;;;;;;;4972238;28;20073;-61
2022/08/24 09:43:35;;;;;;;6.50;2.20;;;;;;;;;;4970139;28;20034;-60
2022/08/24 09:46:33;;;;;;;3.53;2.03;;;;;;;;;;4962793;28;20034;-62
2022/08/24 09:49:26;;;;;;;4.38;2.10;;;;;;;;;;4956269;28;20511;-60
2022/08/24 09:52:08;;;;;;;6.28;2.15;;;;;;;;;;4973118;28;20033;-61
2022/08/24 09:55:05;;;;;;;4.90;2.35;;;;;;;;;;4976269;28;20049;-61
2022/08/24 09:58:07;;;;;;;4.97;2.20;;;;;;;;;;4991469;28;20042;-61
2022/08/24 10:00:43;;;;;;;5.43;2.30;;;;;;;;;;4972515;28;20057;-61
2022/08/24 10:03:39;;;;;;;10.73;2.30;;;;;;;;;;4972552;28;20072;-61
2022/08/24 10:06:39;;;;;;;5.65;2.50;;;;;;;;;;4960700;28;20539;-63
2022/08/24 10:09:26;;;;;;;3.25;1.95;;;;;;;;;;4952961;28;20034;-62
2022/08/24 10:11:57;;;;;;;5.05;2.30;;;;;;;;;;4965784;28;20027;-60
2022/08/24 10:14:38;;;;;;;4.05;2.10;;;;;;;;;;4970488;28;20691;-60
2022/08/24 10:17:23;;;;;;;5.93;2.00;;;;;;;;;;4972282;28;20057;-62
2022/08/24 10:20:01;;;;;;;3.58;1.80;;;;;;;;;;4972388;28;20107;-61
2022/08/24 10:22:41;;;;;;;6.13;1.80;;;;;;;;;;4972021;28;20043;-61
2022/08/24 10:25:36;;;;;;;5.03;1.92;;;;;;;;;;4970797;28;20041;-61
2022/08/24 10:28:32;;;;;;;4.47;1.92;;;;;;;;;;4953322;28;20031;-60
2022/08/24 10:31:04;;;;;;;4.90;1.90;;;;;;;;;;4967598;28;20114;-61
2022/08/24 10:33:37;;;;;;;3.53;1.80;;;;;;;;;;4970715;28;20384;-60
2022/08/24 10:36:42;;;;;;;6.85;2.20;;;;;;;;;;4972679;28;20527;-62
2022/08/24 10:39:42;;;;;;;4.10;1.90;;;;;;;;;;4967444;28;20047;-61
2022/08/24 10:45:44;;;;;;;3.72;2.00;;;;;;;;;;4952212;29;20070;-60
2022/08/24 10:48:12;;;;;;;2.78;2.08;;;;;;;;;;4963037;28;20039;-62
2022/08/24 10:50:59;;;;;;;6.18;2.85;;;;;;;;;;4967734;28;20066;-61
2022/08/24 10:53:26;;;;;;;4.45;2.10;;;;;;;;;;4973212;28;20095;-61
2022/08/24 10:56:13;;;;;;;5.75;2.10;;;;;;;;;;4973960;28;20062;-61
2022/08/24 10:58:56;;;;;;;7.35;1.85;;;;;;;;;;4967577;28;20126;-60
2022/08/24 11:01:32;;;;;;;5.38;2.13;;;;;;;;;;4961952;28;20434;-60
2022/08/24 11:03:58;;;;;;;7.45;2.03;;;;;;;;;;4976131;28;20037;-61
2022/08/24 11:06:26;;;;;;;6.18;2.17;;;;;;;;;;4973963;28;20034;-60
2022/08/24 11:08:59;;;;;;;5.53;2.20;;;;;;;;;;4974782;28;20037;-61
2022/08/24 11:11:45;;;;;;;6.05;2.40;;;;;;;;;;4972811;28;20045;-60
2022/08/24 11:14:28;;;;;;;3.50;2.20;;;;;;;;;;4974300;28;20034;-61
2022/08/24 11:17:13;;;;;;;6.32;2.30;;;;;;;;;;4974457;28;20141;-61
2022/08/24 11:19:39;;;;;;;8.20;2.20;;;;;;;;;;4974433;28;20041;-61
2022/08/24 11:22:26;;;;;;;4.72;2.20;;;;;;;;;;4975268;28;20027;-61
2022/08/24 11:24:54;;;;;;;3.95;2.03;;;;;;;;;;4962162;28;20053;-60
2022/08/24 11:27:36;;;;;;;4.65;2.00;;;;;;;;;;4973139;28;20162;-62
2022/08/24 11:30:27;;;;;;;5.80;2.35;;;;;;;;;;4974152;28;20369;-61
2022/08/24 11:33:01;;;;;;;6.05;2.13;;;;;;;;;;4973868;28;20081;-62
2022/08/24 11:35:32;;;;;;;4.00;2.10;;;;;;;;;;4973007;28;20189;-60
2022/08/24 11:38:15;;;;;;;4.95;2.30;;;;;;;;;;4972737;28;20041;-61
2022/08/24 11:41:02;;;;;;;7.03;2.10;;;;;;;;;;4972291;28;20085;-61
2022/08/24 11:43:54;;;;;;;3.92;2.17;;;;;;;;;;4965986;28;20073;-61
2022/08/24 11:46:36;;;;;;;6.30;2.10;;;;;;;;;;4973632;28;20093;-63
2022/08/24 11:49:11;;;;;;;8.05;2.33;;;;;;;;;;4974260;28;20439;-62
2022/08/24 11:52:01;;;;;;;7.63;2.30;;;;;;;;;;4974409;28;20101;-61
2022/08/24 11:54:56;;;;;;;5.18;2.20;;;;;;;;;;4971986;28;20286;-62
2022/08/24 11:57:48;;;;;;;7.45;2.33;;;;;;;;;;4956342;28;20055;-63
2022/08/24 12:00:19;;;;;;;6.75;2.20;;;;;;;;;;4970244;28;20105;-62
2022/08/24 12:03:03;;;;;;;7.00;2.00;;;;;;;;;;4973136;28;20042;-60
2022/08/24 12:05:49;;;;;;;4.15;1.90;;;;;;;;;;4969067;28;20093;-60
2022/08/24 12:08:18;;;;;;;4.22;2.03;;;;;;;;;;4971128;28;20038;-61
2022/08/24 12:10:46;;;;;;;8.95;2.22;;;;;;;;;;4973018;28;20046;-61
2022/08/24 12:13:29;;;;;;;6.05;2.17;;;;;;;;;;4960896;28;20048;-61
2022/08/24 12:16:07;;;;;;;4.80;2.15;;;;;;;;;;4971970;28;20043;-61
2022/08/24 12:18:54;;;;;;;3.60;1.95;;;;;;;;;;4973591;28;20162;-63
2022/08/24 12:21:23;;;;;;;3.40;1.88;;;;;;;;;;4972702;28;20487;-61
2022/08/24 12:23:53;;;;;;;5.47;2.08;;;;;;;;;;4973323;28;20034;-60
2022/08/24 12:26:18;;;;;;;;;;;;;;;;;;4968381;28;20041;-61
2022/08/24 12:28:50;;;;;;;5.13;2.00;;;;;;;;;;4974081;28;19917;-61
2022/08/24 12:31:44;;;;;;;4.30;1.90;;;;;;;;;;4969279;28;20281;-61
2022/08/24 12:34:25;;;;;;;4.57;1.70;;;;;;;;;;4972943;28;20082;-63
2022/08/24 12:37:03;;;;;;;5.50;1.90;;;;;;;;;;4972645;28;20042;-61
2022/08/24 12:39:35;;;;;;;6.13;1.80;;;;;;;;;;4973188;28;20045;-61
2022/08/24 12:42:31;;;;;;;4.78;1.70;;;;;;;;;;4954512;28;20059;-62
2022/08/24 12:45:06;;;;;;;3.17;1.70;;;;;;;;;;4972653;28;20057;-61
2022/08/24 12:47:44;;;;;;;6.65;1.90;;;;;;;;;;4971376;28;20736;-62
2022/08/24 12:50:26;;;;;;;4.47;1.80;;;;;;;;;;4970508;28;20033;-63
2022/08/24 12:53:28;;;;;;;4.15;2.08;;;;;;;;;;4957834;28;20027;-62
2022/08/24 12:56:11;;;;;;;3.83;1.90;;;;;;;;;;4969868;28;20120;-61
2022/08/24 12:58:39;;;;;;;5.15;2.00;;;;;;;;;;4972177;28;20399;-61
2022/08/24 13:01:05;;;;;;;5.70;1.80;;;;;;;;;;4970144;28;20070;-62
2022/08/24 13:03:34;;;;;;;6.07;2.47;;;;;;;;;;4973093;28;20329;-61
2022/08/24 13:06:05;;;;;;;5.32;1.95;;;;;;;;;;4972597;28;20035;-61
2022/08/24 13:08:37;;;;;;;4.63;1.92;;;;;;;;;;4969021;28;20063;-63
2022/08/24 13:11:11;;;;;;;4.95;2.15;;;;;;;;;;4972883;28;20035;-61
2022/08/24 13:13:56;;;;;;;5.43;2.22;;;;;;;;;;4970197;28;20518;-62
2022/08/24 13:16:50;;;;;;;5.97;2.00;;;;;;;;;;4968280;28;20033;-62
2022/08/24 13:19:40;;;;;;;5.45;2.00;;;;;;;;;;4965379;28;20460;-62
2022/08/24 13:22:08;;;;;;;4.65;1.88;;;;;;;;;;4971174;28;20065;-61
2022/08/24 13:24:34;;;;;;;5.38;2.13;;;;;;;;;;4972301;28;20093;-61
2022/08/24 13:27:12;;;;;;;4.53;2.00;;;;;;;;;;4972426;28;20043;-63
2022/08/24 13:29:41;;;;;;;5.65;1.90;;;;;;;;;;4953500;28;20066;-61
2022/08/24 13:32:09;;;;;;;;;;;;;;;;;;4954817;28;20035;-62
2022/08/24 13:34:36;;;;;;;3.10;2.05;;;;;;;;;;4953123;28;19981;-62
2022/08/24 13:37:27;;;;;;;4.40;2.10;;;;;;;;;;4965194;28;20096;-62
2022/08/24 13:40:01;;;;;;;3.72;1.90;;;;;;;;;;4972953;28;20042;-62
2022/08/24 13:43:04;;;;;;;3.47;2.08;;;;;;;;;;4967731;28;20042;-62
2022/08/24 13:45:53;;;;;;;5.50;1.95;;;;;;;;;;4953194;28;20031;-61
2022/08/24 13:48:44;;;;;;;3.90;2.10;;;;;;;;;;4972428;28;20110;-61
2022/08/24 13:51:37;;;;;;;3.83;2.28;;;;;;;;;;4971369;28;20050;-61
2022/08/24 13:54:46;;;;;;;8.65;2.40;;;;;;;;;;4958922;28;20035;-61
2022/08/24 13:57:37;;;;;;;5.78;2.38;;;;;;;;;;4969677;28;20090;-61
2022/08/24 14:00:40;;;;;;;5.80;2.22;;;;;;;;;;4967400;28;20192;-61
2022/08/24 14:03:20;;;;;;;5.60;2.30;;;;;;;;;;4953163;28;20047;-63
2022/08/24 14:05:51;;;;;;;4.00;2.30;;;;;;;;;;4970144;28;20038;-63
2022/08/24 14:08:43;;;;;;;6.88;2.33;;;;;;;;;;4952541;28;20039;-65
2022/08/24 14:11:31;;;;;;;7.70;2.70;;;;;;;;;;4953760;28;20078;-66
2022/08/24 14:14:44;;;;;;;8.03;3.13;;;;;;;;;;4967489;28;20122;-63
2022/08/24 14:20:08;;;;;;;4.47;2.45;;;;;;;;;;4952994;29;20134;-63
2022/08/24 14:23:12;;;;;;;6.05;2.85;;;;;;;;;;4968944;28;20575;-62
2022/08/24 14:25:37;;;;;;;4.38;2.17;;;;;;;;;;4970672;28;20122;-64
2022/08/24 14:28:03;;;;;;;4.97;2.22;;;;;;;;;;4971098;28;20476;-63
2022/08/24 14:30:28;;;;;;;5.13;2.35;;;;;;;;;;4973366;28;20059;-62
2022/08/24 14:33:00;;;;;;;7.20;2.22;;;;;;;;;;4975799;28;20034;-62
2022/08/24 14:35:35;;;;;;;7.28;2.38;;;;;;;;;;4973186;28;20475;-63
2022/08/24 14:38:19;;;;;;;7.40;2.47;;;;;;;;;;4975613;28;20057;-65
2022/08/24 14:41:19;;;;;;;5.43;2.92;;;;;;;;;;4973423;28;20597;-64
2022/08/24 14:44:12;;;;;;;5.10;2.40;;;;;;;;;;4974735;28;20037;-63
2022/08/24 14:46:56;;;;;;;6.70;2.35;;;;;;;;;;4974160;28;20035;-63
2022/08/24 14:49:45;;;;;;;7.70;2.80;;;;;;;;;;4973285;28;20073;-63
2022/08/24 14:52:29;;;;;;;8.00;2.30;;;;;;;;;;4965672;28;20059;-63
2022/08/24 14:55:25;;;;;;;4.68;2.78;;;;;;;;;;4966011;28;20110;-63
2022/08/24 14:58:05;;;;;;;5.82;2.55;;;;;;;;;;4976009;28;20168;-63
2022/08/24 15:01:15;;;;;;;4.68;2.30;;;;;;;;;;4972698;28;20054;-62
2022/08/24 15:04:12;;;;;;;5.25;2.35;;;;;;;;;;4972616;28;22303;-63
2022/08/24 15:07:22;;;;;;;5.18;2.50;;;;;;;;;;4966353;28;20035;-63
2022/08/24 15:09:48;;;;;;;5.57;2.53;;;;;;;;;;4976963;28;20101;-62
2022/08/24 15:12:45;;;;;;;5.97;2.40;;;;;;;;;;4973455;28;20030;-63
2022/08/24 15:15:22;;;;;;;5.32;2.35;;;;;;;;;;4975726;28;20077;-63
2022/08/24 15:17:58;;;;;;;3.78;2.60;;;;;;;;;;4972856;28;20038;-63
2022/08/24 15:20:48;;;;;;;6.18;2.50;;;;;;;;;;4955752;28;20039;-63
2022/08/24 15:23:45;;;;;;;6.93;2.72;;;;;;;;;;4967497;28;20039;-62
2022/08/24 15:26:27;;;;;;;4.07;2.30;;;;;;;;;;4968946;28;20039;-62
2022/08/24 15:28:54;;;;;;;5.15;2.30;;;;;;;;;;4971308;28;20102;-63